Time;durP1;ratioP1;P1;durP2;ratioP2;P2;SDS_P1;SDS_P2;PMS_P1;PMS_P2;Temp;Humidity;BMP_temperature;BMP_pressure;BME280_temperature;BME280_humidity;BME280_pressure;Samples;Min_cycle;Max_cycle;Signal;HPM_P1;HPM_P2
2021/05/26 00:01:55;;;;;;;2.15;1.32;;;;;;;9.48;78.60;100234.86;2847727;83;21044;-64
2021/05/26 00:05:57;;;;;;;1.77;1.67;;;;;;;9.46;78.71;100238.12;2847819;83;21040;-64
2021/05/26 00:09:58;;;;;;;3.62;2.37;;;;;;;9.50;78.65;100235.11;2848043;83;21076;-64
2021/05/26 00:14:02;;;;;;;2.30;2.05;;;;;;;9.54;78.22;100232.57;2848141;83;21079;-64
2021/05/26 00:18:04;;;;;;;7.12;1.98;;;;;;;9.52;78.07;100223.88;2848074;83;21110;-64
2021/05/26 00:22:07;;;;;;;6.90;1.82;;;;;;;9.55;77.89;100220.98;2844901;83;21049;-64
2021/05/26 00:26:09;;;;;;;2.98;1.10;;;;;;;9.56;77.78;100216.03;2843588;83;21052;-64
2021/05/26 00:30:13;;;;;;;1.20;1.05;;;;;;;9.55;77.64;100207.70;2843541;83;21163;-64
2021/05/26 00:34:15;;;;;;;1.17;1.10;;;;;;;9.53;77.76;100200.81;2843284;83;21131;-63
2021/05/26 00:38:18;;;;;;;3.02;1.82;;;;;;;9.54;77.81;100200.70;2843488;83;21076;-64
2021/05/26 00:42:21;;;;;;;2.72;1.85;;;;;;;9.57;77.78;100192.48;2843515;83;21080;-64
2021/05/26 00:46:23;;;;;;;2.15;1.30;;;;;;;9.62;77.71;100193.93;2843478;83;21036;-64
2021/05/26 00:50:29;;;;;;;2.45;1.30;;;;;;;9.66;77.67;100188.77;2843512;83;21075;-64
2021/05/26 00:54:31;;;;;;;1.75;1.62;;;;;;;9.72;77.71;100184.28;2842862;83;21048;-63
2021/05/26 00:58:33;;;;;;;2.37;1.80;;;;;;;9.80;77.52;100181.01;2843160;83;21100;-64
2021/05/26 01:02:35;;;;;;;2.45;1.60;;;;;;;9.88;77.38;100178.56;2843173;83;21102;-64
2021/05/26 01:06:36;;;;;;;1.45;1.02;;;;;;;9.95;76.96;100170.95;2843030;83;21060;-63
2021/05/26 01:10:39;;;;;;;4.03;1.00;;;;;;;10.03;76.70;100179.16;2843247;83;21597;-63
2021/05/26 01:14:42;;;;;;;2.37;1.05;;;;;;;10.09;76.37;100177.31;2843123;83;21079;-64
2021/05/26 01:18:44;;;;;;;1.87;1.10;;;;;;;10.11;75.87;100186.01;2843309;83;21103;-64
2021/05/26 01:22:45;;;;;;;3.17;1.05;;;;;;;10.12;76.05;100185.50;2843275;83;21163;-65
2021/05/26 01:26:48;;;;;;;1.70;1.30;;;;;;;10.09;76.45;100183.96;2843436;83;21558;-65
2021/05/26 01:30:51;;;;;;;1.75;1.40;;;;;;;10.07;76.33;100181.05;2843420;83;21028;-65
2021/05/26 01:34:53;;;;;;;1.55;0.90;;;;;;;10.02;76.36;100188.06;2843165;83;21925;-66
2021/05/26 01:38:54;;;;;;;4.85;2.02;;;;;;;9.96;76.66;100184.59;2843440;83;21012;-66
2021/05/26 01:42:56;;;;;;;3.33;1.57;;;;;;;9.86;76.82;100188.00;2843354;83;21564;-66
2021/05/26 01:46:58;;;;;;;1.98;1.50;;;;;;;9.79;77.18;100188.12;2843602;83;21123;-66
2021/05/26 01:51:00;;;;;;;1.72;0.93;;;;;;;9.75;77.34;100193.83;2888034;82;21090;-66
2021/05/26 01:55:03;;;;;;;1.45;0.85;;;;;;;9.72;77.44;100197.56;2893270;82;21118;-66
2021/05/26 01:59:05;;;;;;;2.12;1.32;;;;;;;9.70;77.86;100196.34;2893233;82;21094;-65
2021/05/26 02:03:06;;;;;;;1.40;1.07;;;;;;;9.74;78.22;100198.77;2893243;82;21094;-65
2021/05/26 02:07:11;;;;;;;4.83;1.25;;;;;;;9.78;78.37;100199.72;2893268;82;21579;-65
2021/05/26 02:15:34;;;;;;;2.47;1.17;;;;;;;9.84;78.07;100190.41;2867748;82;21126;-64
2021/05/26 02:19:36;;;;;;;2.00;1.60;;;;;;;9.79;78.01;100192.10;2893451;82;21091;-65
2021/05/26 02:23:38;;;;;;;2.45;1.45;;;;;;;9.70;78.23;100195.51;2893229;82;21063;-64
2021/05/26 02:27:39;;;;;;;1.92;1.20;;;;;;;9.51;78.56;100198.77;2867732;82;21142;-65
2021/05/26 02:31:41;;;;;;;2.60;1.47;;;;;;;9.35;79.13;100203.12;2892953;82;21083;-65
2021/05/26 02:35:43;;;;;;;2.22;1.62;;;;;;;9.17;79.63;100200.92;2893162;82;21119;-64
2021/05/26 02:39:45;;;;;;;2.17;1.55;;;;;;;8.99;80.31;100210.66;2893297;82;21067;-64
2021/05/26 02:43:48;;;;;;;1.45;1.35;;;;;;;8.85;80.92;100206.91;2893118;82;21075;-65
2021/05/26 02:47:50;;;;;;;3.70;1.40;;;;;;;8.79;81.35;100203.38;2893202;82;21103;-64
2021/05/26 02:51:51;;;;;;;2.52;1.00;;;;;;;8.76;81.48;100203.62;2893197;82;21075;-64
2021/05/26 02:55:53;;;;;;;2.15;1.10;;;;;;;8.78;81.60;100205.67;2893077;82;21750;-64
2021/05/26 02:59:55;;;;;;;2.95;1.57;;;;;;;8.83;81.73;100207.02;2893212;82;21675;-65
2021/05/26 03:03:57;;;;;;;1.87;1.25;;;;;;;8.93;81.67;100207.16;2893263;82;21079;-66
2021/05/26 03:07:59;;;;;;;3.40;1.25;;;;;;;9.03;81.42;100204.66;2893147;82;21075;-66
2021/05/26 03:12:00;;;;;;;2.25;1.32;;;;;;;9.13;81.13;100204.78;2864575;80;21707;-66
2021/05/26 03:16:06;;;;;;;7.92;1.75;;;;;;;9.21;81.01;100208.18;2843974;83;21072;-66
2021/05/26 03:20:13;;;;;;;2.40;1.37;;;;;;;9.29;80.98;100207.95;2863130;82;21061;-67
2021/05/26 03:24:16;;;;;;;2.15;1.20;;;;;;;9.45;81.27;100208.08;2897240;82;21040;-67
2021/05/26 03:28:18;;;;;;;3.00;1.00;;;;;;;9.64;80.87;100206.63;2897340;82;21044;-65
2021/05/26 03:32:22;;;;;;;5.28;2.15;;;;;;;9.79;80.42;100201.90;2897007;82;21044;-62
2021/05/26 03:36:25;;;;;;;2.35;1.40;;;;;;;9.92;79.92;100195.11;2897725;82;21115;-62
2021/05/26 03:40:26;;;;;;;1.55;1.35;;;;;;;10.00;79.28;100188.68;2897547;82;21036;-63
2021/05/26 03:44:28;;;;;;;1.85;1.27;;;;;;;10.07;78.98;100189.03;2897798;82;22264;-63
2021/05/26 03:48:30;;;;;;;7.10;2.55;;;;;;;10.15;78.76;100182.63;2897557;82;21085;-63
2021/05/26 03:52:31;;;;;;;3.47;1.65;;;;;;;10.27;79.01;100187.41;2897714;82;21049;-62
2021/05/26 03:56:34;;;;;;;6.78;1.82;;;;;;;10.50;78.81;100182.86;2897771;82;21096;-61
2021/05/26 04:00:36;;;;;;;1.90;1.50;;;;;;;10.67;78.59;100184.13;2897598;82;21050;-63
2021/05/26 04:04:41;;;;;;;4.83;1.50;;;;;;;10.84;78.08;100180.53;2897872;82;21096;-62
2021/05/26 04:08:43;;;;;;;6.45;1.65;;;;;;;10.93;76.98;100168.27;2897807;82;21032;-62
2021/05/26 04:12:44;;;;;;;2.42;1.82;;;;;;;11.02;76.70;100171.45;2898278;82;21068;-63
2021/05/26 04:16:46;;;;;;;2.45;1.85;;;;;;;11.15;76.40;100168.57;2898082;82;21064;-63
2021/05/26 04:20:48;;;;;;;4.30;1.60;;;;;;;11.18;75.75;100177.62;2897642;81;21072;-63
2021/05/26 04:24:50;;;;;;;6.12;1.47;;;;;;;11.19;75.78;100183.30;2893290;82;21115;-62
2021/05/26 04:28:52;;;;;;;2.27;1.05;;;;;;;11.91;77.38;100172.64;2893181;82;21060;-63
2021/05/26 04:32:54;;;;;;;2.37;1.70;;;;;;;13.03;74.22;100168.34;2893469;82;21056;-63
2021/05/26 04:36:57;;;;;;;2.58;1.92;;;;;;;14.03;72.45;100172.61;2894031;82;21120;-63
2021/05/26 04:41:00;;;;;;;2.17;1.42;;;;;;;14.99;69.11;100167.08;2893849;82;21096;-64
2021/05/26 04:45:01;;;;;;;3.77;2.10;;;;;;;15.66;65.05;100160.70;2894264;82;21038;-63
2021/05/26 04:49:04;;;;;;;3.60;1.67;;;;;;;16.39;64.01;100163.23;2894383;82;21107;-63
2021/05/26 04:53:06;;;;;;;1.57;1.27;;;;;;;16.96;62.71;100164.69;2895085;82;21072;-64
2021/05/26 04:57:09;;;;;;;4.87;1.57;;;;;;;17.19;60.60;100155.44;2932987;80;21050;-64
2021/05/26 05:01:11;;;;;;;1.52;1.10;;;;;;;17.27;60.43;100156.75;2947115;80;21085;-64
2021/05/26 05:05:14;;;;;;;3.42;1.77;;;;;;;17.01;59.38;100162.87;2849510;83;21077;-64
2021/05/26 05:09:16;;;;;;;1.47;1.37;;;;;;;16.69;59.64;100167.57;2876883;82;21089;-64
2021/05/26 05:13:18;;;;;;;2.92;0.60;;;;;;;16.89;60.85;100173.94;2849632;83;21105;-64
2021/05/26 05:17:21;;;;;;;0.82;0.62;;;;;;;17.28;59.79;100162.45;2876948;82;21527;-64
2021/05/26 05:21:23;;;;;;;2.15;1.12;;;;;;;17.30;58.88;100163.64;2874675;82;21117;-64
2021/05/26 05:25:25;;;;;;;2.37;1.10;;;;;;;17.25;58.88;100165.49;2855122;83;21078;-63
2021/05/26 05:29:27;;;;;;;3.22;1.65;;;;;;;17.56;58.83;100162.03;2855218;83;21101;-64
2021/05/26 05:33:29;;;;;;;2.60;1.30;;;;;;;18.05;58.87;100161.98;2855396;83;21157;-64
2021/05/26 05:37:31;;;;;;;1.87;1.05;;;;;;;18.31;57.33;100156.25;2836919;84;21018;-64
2021/05/26 05:41:33;;;;;;;1.57;0.93;;;;;;;18.22;56.23;100155.96;2855926;83;21042;-64
2021/05/26 05:45:34;;;;;;;4.75;1.15;;;;;;;18.17;56.38;100148.94;2837428;84;21148;-64
2021/05/26 05:49:36;;;;;;;3.10;1.00;;;;;;;17.99;56.22;100144.65;2855950;83;21030;-64
2021/05/26 05:53:38;;;;;;;3.62;1.02;;;;;;;17.71;56.57;100150.55;2855698;83;21097;-64
2021/05/26 05:57:40;;;;;;;3.22;1.27;;;;;;;17.40;57.45;100151.34;2855719;83;21054;-64
2021/05/26 06:01:44;;;;;;;1.37;0.88;;;;;;;17.35;58.62;100153.20;2855840;83;21046;-64
2021/05/26 06:05:47;;;;;;;2.45;1.20;;;;;;;17.37;58.97;100155.72;2837164;83;21062;-64
2021/05/26 06:09:51;;;;;;;1.37;0.85;;;;;;;17.30;59.33;100152.06;2855581;83;21077;-64
2021/05/26 06:13:53;;;;;;;2.30;1.00;;;;;;;17.31;59.38;100159.11;2855617;83;21033;-64
2021/05/26 06:18:00;;;;;;;1.82;0.90;;;;;;;17.28;58.61;100158.94;2855688;82;21057;-64
2021/05/26 06:22:01;;;;;;;3.67;1.32;;;;;;;17.36;58.83;100166.97;2841011;83;21037;-64
2021/05/26 06:26:05;;;;;;;3.17;0.95;;;;;;;17.63;59.66;100159.98;2938476;81;21062;-64
2021/05/26 06:30:09;;;;;;;2.62;1.07;;;;;;;17.86;59.79;100164.07;2858300;83;21042;-64
2021/05/26 06:34:12;;;;;;;0.95;0.85;;;;;;;18.33;58.57;100160.94;2938645;81;21109;-64
2021/05/26 06:38:14;;;;;;;7.35;1.00;;;;;;;18.54;57.31;100154.04;2938712;81;21089;-64
2021/05/26 06:42:15;;;;;;;3.05;1.30;;;;;;;18.56;56.61;100157.39;2938696;81;21085;-64
2021/05/26 06:46:19;;;;;;;1.67;1.15;;;;;;;18.53;55.96;100161.80;2938730;81;21026;-64
2021/05/26 06:50:21;;;;;;;4.70;1.32;;;;;;;18.52;55.68;100152.86;2938762;81;21050;-64
2021/05/26 06:54:23;;;;;;;1.37;0.72;;;;;;;18.67;56.08;100150.72;2858863;83;21077;-64
2021/05/26 06:58:24;;;;;;;2.12;0.70;;;;;;;18.84;55.49;100145.52;2938921;81;21078;-64
2021/05/26 07:02:27;;;;;;;1.32;0.80;;;;;;;18.87;55.33;100151.55;2939306;81;21137;-64
2021/05/26 07:06:28;;;;;;;5.10;1.02;;;;;;;18.66;56.25;100149.88;2939151;81;21034;-64
2021/05/26 07:10:30;;;;;;;3.42;1.60;;;;;;;18.41;56.01;100148.75;2939191;81;21077;-64
2021/05/26 07:14:32;;;;;;;4.47;0.90;;;;;;;18.24;57.68;100153.44;2938993;81;21101;-64
2021/05/26 07:18:34;;;;;;;1.55;1.12;;;;;;;18.16;56.08;100148.61;2938901;81;20990;-64
2021/05/26 07:22:38;;;;;;;3.87;1.70;;;;;;;18.21;57.21;100145.72;2939982;81;21034;-64
2021/05/26 07:26:42;;;;;;;3.08;1.72;;;;;;;18.22;56.14;100143.84;2944097;81;21042;-64
2021/05/26 07:30:44;;;;;;;2.70;0.98;;;;;;;18.31;56.17;100152.70;2944276;81;21003;-64
2021/05/26 07:34:46;;;;;;;4.15;1.42;;;;;;;18.40;55.75;100148.95;2944241;80;21038;-64
2021/05/26 07:38:48;;;;;;;2.90;1.15;;;;;;;18.39;55.67;100150.78;2867967;83;21117;-64
2021/05/26 07:42:49;;;;;;;5.72;1.35;;;;;;;18.33;55.28;100148.83;2944229;81;21048;-64
2021/05/26 07:46:54;;;;;;;3.35;1.07;;;;;;;18.37;56.35;100144.75;2868032;83;21092;-64
2021/05/26 07:50:56;;;;;;;3.60;1.17;;;;;;;18.47;57.04;100150.38;2944474;81;21618;-64
2021/05/26 07:55:00;;;;;;;3.55;1.62;;;;;;;18.68;56.40;100150.55;2868424;83;21064;-64
2021/05/26 07:59:03;;;;;;;3.55;1.32;;;;;;;18.95;57.64;100159.53;2944506;81;21049;-64
2021/05/26 08:03:06;;;;;;;2.85;1.00;;;;;;;19.07;55.52;100151.89;2868132;83;21124;-64
2021/05/26 08:07:12;;;;;;;3.45;1.82;;;;;;;19.10;55.06;100150.98;2944252;81;21102;-64
2021/05/26 08:11:14;;;;;;;1.22;0.85;;;;;;;19.07;55.11;100154.59;2868159;83;21065;-64
2021/05/26 08:15:17;;;;;;;2.95;1.50;;;;;;;19.00;54.27;100143.70;2944456;81;21050;-64
2021/05/26 08:19:19;;;;;;;6.10;1.57;;;;;;;19.18;54.87;100139.28;2868488;83;21073;-64
2021/05/26 08:23:22;;;;;;;2.98;1.60;;;;;;;19.58;55.00;100138.13;2944424;81;20990;-64
2021/05/26 08:27:26;;;;;;;3.83;1.57;;;;;;;20.06;54.58;100131.76;2944826;81;21057;-64
2021/05/26 08:31:28;;;;;;;1.25;1.15;;;;;;;20.49;55.19;100135.47;2945091;81;21047;-64
2021/05/26 08:35:30;;;;;;;4.28;1.40;;;;;;;20.84;53.59;100130.16;2945406;81;21137;-64
2021/05/26 08:39:35;;;;;;;10.35;2.35;;;;;;;21.16;54.96;100125.66;2945519;81;21090;-64
2021/05/26 08:43:39;;;;;;;1.37;1.07;;;;;;;21.07;51.97;100120.94;2945018;81;21078;-64
2021/05/26 08:47:49;;;;;;;8.75;1.25;;;;;;;20.70;53.08;100122.41;2945505;81;21606;-64
2021/05/26 08:51:51;;;;;;;2.35;0.82;;;;;;;20.29;52.36;100117.22;2944866;81;21290;-64
2021/05/26 08:55:55;;;;;;;3.33;1.10;;;;;;;20.01;52.03;100115.28;2945092;80;21022;-64
2021/05/26 08:59:57;;;;;;;1.27;1.10;;;;;;;19.75;51.19;100118.00;2868963;83;21116;-64
2021/05/26 09:04:24;;;;;;;2.65;1.42;;;;;;;19.66;52.29;100108.36;2944681;81;21050;-64
2021/05/26 09:08:27;;;;;;;6.90;1.85;;;;;;;19.68;52.70;100107.66;2947477;80;21598;-64
2021/05/26 09:12:40;;;;;;;1.98;0.98;;;;;;;19.77;52.18;100105.14;2950311;80;21053;-64
2021/05/26 09:16:47;;;;;;;5.33;1.70;;;;;;;19.67;52.03;100103.28;2950116;80;21017;-64
2021/05/26 09:20:49;;;;;;;83.17;11.88;;;;;;;19.49;53.26;100101.83;2950340;80;21034;-64
2021/05/26 09:24:52;;;;;;;1.52;0.98;;;;;;;19.63;54.12;100092.03;2848042;83;21121;-64
2021/05/26 09:28:56;;;;;;;1.42;0.95;;;;;;;19.70;53.34;100091.58;2857059;83;21098;-64
2021/05/26 09:32:58;;;;;;;7.25;1.95;;;;;;;19.72;54.35;100087.35;2829074;83;21089;-64
2021/05/26 09:37:01;;;;;;;2.85;1.00;;;;;;;20.11;51.95;100069.06;2857191;83;21061;-64
2021/05/26 09:41:12;;;;;;;4.72;1.00;;;;;;;20.68;53.05;100079.39;2857541;82;21050;-64
2021/05/26 09:45:32;;;;;;;1.40;0.82;;;;;;;21.03;52.02;100073.67;2838493;84;21058;-64
2021/05/26 09:49:33;;;;;;;4.37;1.20;;;;;;;21.39;50.41;100067.17;2857728;83;21101;-64
2021/05/26 09:53:35;;;;;;;1.55;0.75;;;;;;;21.53;50.09;100061.31;2857667;83;21057;-64
2021/05/26 09:57:40;;;;;;;1.07;0.70;;;;;;;21.45;48.68;100057.42;2857632;82;21468;-64
2021/05/26 10:01:42;;;;;;;1.72;0.68;;;;;;;21.11;50.84;100069.47;2857533;83;21097;-64
2021/05/26 10:05:44;;;;;;;0.95;0.50;;;;;;;20.59;48.64;100084.61;2857313;83;21085;-64
2021/05/26 10:09:49;;;;;;;1.65;0.72;;;;;;;19.76;50.25;100084.59;2838584;84;21046;-64
2021/05/26 10:13:52;;;;;;;1.72;0.80;;;;;;;19.40;53.13;100073.28;2856805;83;21077;-64
2021/05/26 10:17:59;;;;;;;2.67;0.80;;;;;;;19.38;53.09;100051.06;2856709;83;21129;-64
2021/05/26 10:22:03;;;;;;;7.72;2.05;;;;;;;19.07;54.90;100062.41;2837941;84;21026;-64
2021/05/26 10:26:05;;;;;;;1.50;0.80;;;;;;;18.95;54.64;100060.67;2856852;83;21035;-64
2021/05/26 10:30:08;;;;;;;2.95;1.02;;;;;;;19.14;53.87;100049.02;2856934;83;21042;-64
2021/05/26 10:34:12;;;;;;;8.00;1.65;;;;;;;19.82;54.99;100039.81;2856847;83;21137;-64
2021/05/26 10:38:14;;;;;;;1.62;0.75;;;;;;;20.44;54.28;100033.39;2838680;84;21086;-64
2021/05/26 10:42:35;;;;;;;9.35;1.60;;;;;;;20.80;53.65;100031.05;2857564;83;21106;-64
2021/05/26 10:46:48;;;;;;;3.22;1.05;;;;;;;20.97;52.31;100036.13;2838612;84;21097;-64
2021/05/26 10:50:55;;;;;;;5.45;1.27;;;;;;;20.97;52.62;100032.89;2855166;83;21063;-64
2021/05/26 10:54:57;;;;;;;4.10;0.90;;;;;;;20.77;50.46;100041.38;2838809;84;21574;-64
2021/05/26 10:59:17;;;;;;;2.37;1.42;;;;;;;20.25;50.78;100037.63;2857591;83;21094;-64
2021/05/26 11:03:30;;;;;;;3.12;1.05;;;;;;;20.00;52.25;100028.58;2857273;83;21038;-64
2021/05/26 11:07:33;;;;;;;2.45;1.30;;;;;;;19.95;54.28;100037.28;2838684;84;21042;-64
2021/05/26 11:11:40;;;;;;;1.07;0.70;;;;;;;20.25;52.76;100036.28;2857627;83;21046;-64
2021/05/26 11:15:44;;;;;;;2.62;0.68;;;;;;;20.43;51.05;100024.97;2857541;82;21101;-64
2021/05/26 11:19:46;;;;;;;3.17;1.45;;;;;;;20.49;50.50;100023.35;2838784;84;21566;-64
2021/05/26 11:23:53;;;;;;;4.17;0.90;;;;;;;20.61;53.21;100012.29;2857565;83;21129;-64
2021/05/26 11:27:55;;;;;;;1.87;0.60;;;;;;;20.69;51.87;100006.74;2838661;84;21030;-64
2021/05/26 11:32:16;;;;;;;3.02;0.72;;;;;;;20.66;53.05;99997.69;2857726;83;21038;-64
2021/05/26 11:36:20;;;;;;;9.73;1.12;;;;;;;20.66;49.90;99991.44;2856387;83;21121;-65
2021/05/26 11:40:28;;;;;;;1.87;0.72;;;;;;;20.67;48.92;99988.55;2826844;83;21054;-64
2021/05/26 11:44:38;;;;;;;4.22;0.82;;;;;;;20.71;49.46;99980.03;2838926;83;21054;-64
2021/05/26 11:48:47;;;;;;;4.53;0.90;;;;;;;20.84;50.59;99978.78;2857438;83;21035;-64
2021/05/26 11:53:13;;;;;;;3.70;0.88;;;;;;;20.95;50.56;99970.62;2838715;84;21674;-64
2021/05/26 11:57:13;;;;;;;1.82;0.72;;;;;;;21.09;51.12;99970.95;2887038;82;21078;-64
2021/05/26 12:01:17;;;;;;;4.00;1.07;;;;;;;21.15;49.52;99963.09;2839271;83;21089;-64
2021/05/26 12:05:53;;;;;;;0.72;0.57;;;;;;;21.15;49.34;99953.09;2839148;84;21050;-64
2021/05/26 12:09:59;;;;;;;1.45;0.78;;;;;;;21.24;50.83;99949.17;2838899;83;21045;-64
2021/05/26 12:14:00;;;;;;;5.17;0.93;;;;;;;21.39;49.68;99942.73;2839225;83;21049;-64
2021/05/26 12:18:02;;;;;;;3.50;0.95;;;;;;;21.45;49.34;99941.93;2839300;83;21058;-64
2021/05/26 12:22:26;;;;;;;2.80;1.30;;;;;;;21.42;46.98;99934.23;2839364;84;21089;-64
2021/05/26 12:26:33;;;;;;;2.62;0.98;;;;;;;21.37;48.61;99929.43;2857574;83;21084;-64
2021/05/26 12:30:37;;;;;;;6.47;1.20;;;;;;;21.50;49.37;99938.58;2860259;83;21029;-64
2021/05/26 12:34:39;;;;;;;1.90;0.68;;;;;;;21.40;48.85;99929.02;2860017;82;21124;-64
2021/05/26 12:38:44;;;;;;;6.00;1.05;;;;;;;21.37;48.33;99922.66;2860749;83;21100;-64
2021/05/26 12:42:48;;;;;;;;;;;;;;;21.38;48.86;99922.13;2863027;83;21065;-64
2021/05/26 12:46:55;;;;;;;2.77;0.85;;;;;;;21.26;49.20;99920.05;2860429;83;20187;-64
2021/05/26 12:51:00;;;;;;;4.47;0.90;;;;;;;21.21;49.05;99914.41;2860343;83;21129;-64
2021/05/26 12:55:15;;;;;;;1.77;0.78;;;;;;;21.07;49.05;99905.97;2859899;83;21579;-64
2021/05/26 12:59:39;;;;;;;4.20;0.57;;;;;;;21.02;50.69;99907.92;2860219;83;21089;-64
2021/05/26 13:03:41;;;;;;;1.70;1.00;;;;;;;21.00;49.58;99909.16;2859844;83;21017;-64
2021/05/26 13:07:46;;;;;;;1.27;0.68;;;;;;;20.73;50.05;99925.27;2860064;83;21065;-64
2021/05/26 13:11:49;;;;;;;5.92;0.57;;;;;;;20.06;49.77;99931.13;2859784;83;21574;-64
2021/05/26 13:16:11;;;;;;;5.85;0.85;;;;;;;19.77;51.48;99935.14;2859681;83;21085;-63
2021/05/26 13:20:34;;;;;;;4.08;0.30;;;;;;;19.55;52.11;99939.21;2788826;85;21074;-60
2021/05/26 13:24:39;;;;;;;1.65;0.68;;;;;;;19.19;53.11;99950.88;2883450;82;21112;-59
2021/05/26 13:28:41;;;;;;;3.47;0.98;;;;;;;18.95;53.99;99953.37;2884012;82;21029;-60
2021/05/26 13:32:42;;;;;;;1.05;0.60;;;;;;;18.96;53.30;99935.67;2883698;82;21093;-61
2021/05/26 13:36:44;;;;;;;2.20;0.40;;;;;;;19.00;53.32;99938.86;2883567;82;21104;-61
2021/05/26 13:40:48;;;;;;;2.80;0.42;;;;;;;18.98;52.81;99938.19;2883440;82;21093;-61
2021/05/26 13:44:53;;;;;;;1.60;0.60;;;;;;;18.98;54.81;99928.77;2883502;82;21088;-61
2021/05/26 13:48:55;;;;;;;2.37;1.10;;;;;;;19.36;55.81;99932.62;2884008;82;21101;-62
2021/05/26 13:52:59;;;;;;;5.53;0.62;;;;;;;19.95;56.73;99932.51;2883426;82;21048;-62
2021/05/26 13:57:04;;;;;;;1.95;0.70;;;;;;;20.23;55.23;99930.30;2883595;82;21049;-63
2021/05/26 14:01:07;;;;;;;2.17;0.67;;;;;;;20.34;53.51;99924.35;2883819;82;21072;-63
2021/05/26 14:05:13;;;;;;;3.50;0.95;;;;;;;20.15;54.12;99934.52;2883454;82;21033;-62
2021/05/26 14:09:15;;;;;;;4.15;0.70;;;;;;;19.77;53.89;99935.14;2882845;82;21060;-63
2021/05/26 14:13:17;;;;;;;2.40;0.65;;;;;;;19.39;55.65;99920.59;2883476;82;21088;-62
2021/05/26 14:17:20;;;;;;;3.22;1.25;;;;;;;19.12;55.78;99920.33;2883248;82;21069;-62
2021/05/26 14:21:22;;;;;;;2.58;0.65;;;;;;;18.86;56.78;99906.83;2882915;82;21040;-63
2021/05/26 14:25:31;;;;;;;4.40;1.27;;;;;;;18.59;56.68;99903.02;2887016;82;21096;-63
2021/05/26 14:29:32;;;;;;;1.32;0.60;;;;;;;18.39;57.67;99887.43;2891750;81;21037;-63
2021/05/26 14:33:34;;;;;;;1.87;0.68;;;;;;;18.39;58.50;99895.51;2862628;83;21083;-63
2021/05/26 14:37:49;;;;;;;1.50;0.85;;;;;;;18.49;59.35;99888.49;2862588;83;21533;-62
2021/05/26 14:41:51;;;;;;;1.22;0.65;;;;;;;18.78;59.64;99889.45;2862518;83;21078;-63
2021/05/26 14:45:55;;;;;;;0.40;0.30;;;;;;;18.74;58.97;99870.65;2862706;83;21015;-62
2021/05/26 14:49:56;;;;;;;1.17;0.75;;;;;;;18.61;57.27;99876.72;2862544;83;21039;-62
2021/05/26 14:54:00;;;;;;;3.15;0.35;;;;;;;18.40;58.98;99872.42;2862527;83;21038;-63
2021/05/26 14:58:02;;;;;;;1.35;0.60;;;;;;;18.36;59.75;99884.59;2862065;82;21135;-63
2021/05/26 15:02:05;;;;;;;1.42;0.50;;;;;;;18.33;59.66;99882.28;2862461;83;21055;-62
2021/05/26 15:06:07;;;;;;;1.80;0.55;;;;;;;18.22;59.43;99885.42;2862281;83;21591;-62
2021/05/26 15:10:10;;;;;;;1.95;0.80;;;;;;;18.13;59.74;99884.19;2861848;83;21087;-62
2021/05/26 15:14:14;;;;;;;0.65;0.45;;;;;;;18.12;60.26;99893.28;2862240;83;21050;-62
2021/05/26 15:18:16;;;;;;;4.92;1.10;;;;;;;18.20;59.55;99898.23;2862483;83;21070;-62
2021/05/26 15:22:18;;;;;;;1.50;0.68;;;;;;;18.30;59.48;99887.19;2862642;83;21099;-62
2021/05/26 15:26:21;;;;;;;4.42;0.40;;;;;;;18.36;59.94;99879.20;2853359;83;21045;-62
2021/05/26 15:30:24;;;;;;;1.50;0.72;;;;;;;18.52;59.50;99866.56;2847535;83;21060;-62
2021/05/26 15:34:26;;;;;;;0.70;0.20;;;;;;;18.66;58.36;99864.86;2847257;83;21108;-62
2021/05/26 15:38:28;;;;;;;1.35;0.20;;;;;;;18.68;57.59;99859.62;2847636;83;21025;-62
2021/05/26 15:42:30;;;;;;;0.98;0.50;;;;;;;18.60;58.08;99855.67;2847216;83;21009;-62
2021/05/26 15:46:33;;;;;;;1.57;1.00;;;;;;;18.57;57.45;99854.70;2847409;83;21034;-62
2021/05/26 15:50:35;;;;;;;2.05;0.72;;;;;;;18.60;57.96;99851.63;2847231;83;21130;-63
2021/05/26 15:54:38;;;;;;;0.90;0.40;;;;;;;18.78;56.51;99848.53;2847259;83;21033;-62
2021/05/26 15:58:40;;;;;;;8.30;0.82;;;;;;;18.86;56.40;99833.27;2847383;83;21053;-62
2021/05/26 16:02:43;;;;;;;0.40;0.10;;;;;;;18.72;54.91;99841.72;2847281;83;21172;-62
2021/05/26 16:06:48;;;;;;;0.57;0.15;;;;;;;18.58;55.03;99834.83;2847307;83;21065;-62
2021/05/26 16:10:49;;;;;;;0.65;0.40;;;;;;;18.52;58.04;99831.55;2847491;83;21064;-62
2021/05/26 16:14:53;;;;;;;1.98;0.20;;;;;;;18.68;59.03;99847.98;2847332;83;21061;-62
2021/05/26 16:18:55;;;;;;;0.85;0.10;;;;;;;18.97;58.40;99833.59;2847859;83;21017;-62
2021/05/26 16:22:59;;;;;;;0.00;0.00;;;;;;;19.31;56.69;99834.44;2847619;83;21049;-62
2021/05/26 16:27:00;;;;;;;1.37;0.05;;;;;;;19.22;54.22;99841.83;2849137;83;21083;-63
2021/05/26 16:31:02;;;;;;;1.60;0.20;;;;;;;18.75;54.61;99834.07;2850245;83;21111;-62
2021/05/26 16:35:06;;;;;;;0.25;0.10;;;;;;;18.36;55.24;99837.47;2849817;83;21091;-62
2021/05/26 16:39:10;;;;;;;1.30;0.20;;;;;;;18.10;56.63;99831.23;2849927;83;21593;-62
2021/05/26 16:43:12;;;;;;;1.75;0.40;;;;;;;17.94;58.12;99829.54;2849810;83;21095;-62
2021/05/26 16:47:18;;;;;;;0.45;0.30;;;;;;;17.96;58.28;99823.45;2849702;83;21051;-62
2021/05/26 16:51:21;;;;;;;6.30;1.30;;;;;;;18.07;57.89;99827.05;2849772;83;21043;-62
2021/05/26 16:55:28;;;;;;;1.65;0.23;;;;;;;18.08;57.77;99823.36;2835594;83;21096;-63
2021/05/26 16:59:32;;;;;;;0.65;0.23;;;;;;;17.96;56.80;99824.80;2896398;82;21095;-63
2021/05/26 17:03:34;;;;;;;2.08;0.37;;;;;;;17.81;57.47;99825.63;2896292;82;21529;-62
2021/05/26 17:07:37;;;;;;;4.65;0.68;;;;;;;17.66;57.72;99825.63;2896506;82;21064;-62
2021/05/26 17:11:40;;;;;;;0.75;0.45;;;;;;;17.47;57.09;99820.77;2896037;82;21083;-62
2021/05/26 17:15:42;;;;;;;0.40;0.20;;;;;;;17.36;58.59;99830.11;2896140;82;21068;-62
2021/05/26 17:19:45;;;;;;;1.05;0.35;;;;;;;17.31;57.57;99816.39;2895920;82;21609;-62
2021/05/26 17:23:50;;;;;;;1.60;0.40;;;;;;;17.36;58.84;99822.05;2895673;82;21048;-62
2021/05/26 17:27:52;;;;;;;2.75;0.30;;;;;;;17.38;57.67;99815.98;2899815;82;21135;-62
2021/05/26 17:31:54;;;;;;;1.30;0.55;;;;;;;17.34;57.76;99815.50;2900901;82;21056;-62
2021/05/26 17:35:57;;;;;;;1.32;0.33;;;;;;;17.24;58.01;99814.41;2900201;82;21060;-62
2021/05/26 17:40:03;;;;;;;4.25;0.30;;;;;;;17.18;58.95;99815.14;2900783;82;39267;-62
2021/05/26 17:44:06;;;;;;;4.72;0.35;;;;;;;17.12;59.65;99812.66;2899917;82;21111;-62
2021/05/26 17:48:10;;;;;;;0.80;0.60;;;;;;;17.07;59.65;99811.52;2900314;82;21768;-62
2021/05/26 17:52:12;;;;;;;2.02;0.65;;;;;;;16.96;59.83;99809.57;2900579;82;21095;-62
2021/05/26 17:56:15;;;;;;;21.82;2.33;;;;;;;16.82;59.70;99808.99;2900546;82;21064;-62
2021/05/26 18:00:23;;;;;;;21.55;3.58;;;;;;;16.74;60.27;99797.80;2900541;82;22278;-62
2021/05/26 18:04:41;;;;;;;4.42;0.60;;;;;;;16.73;61.51;99793.96;2899798;82;21052;-62
2021/05/26 18:08:44;;;;;;;1.35;0.47;;;;;;;16.65;62.42;99803.72;2898760;82;21016;-62
2021/05/26 18:12:46;;;;;;;1.50;0.37;;;;;;;16.57;61.78;99802.45;2899492;82;21100;-62
2021/05/26 18:16:49;;;;;;;35.23;8.35;;;;;;;16.53;62.60;99805.16;2899855;82;21302;-63
2021/05/26 18:20:51;;;;;;;9.70;4.95;;;;;;;16.55;62.08;99801.79;2899665;82;21080;-62
2021/05/26 18:24:53;;;;;;;9.03;3.75;;;;;;;16.61;62.20;99796.22;2899858;82;21088;-63
2021/05/26 18:28:55;;;;;;;4.65;3.12;;;;;;;16.68;62.42;99791.28;2900252;82;21072;-62
2021/05/26 18:32:59;;;;;;;2.40;1.25;;;;;;;16.74;62.98;99792.95;2900440;82;21063;-62
2021/05/26 18:37:02;;;;;;;2.95;1.52;;;;;;;16.75;63.76;99797.30;2900211;82;21092;-62
2021/05/26 18:41:03;;;;;;;12.95;3.52;;;;;;;16.67;64.57;99792.81;2900361;82;21075;-62
2021/05/26 18:45:10;;;;;;;11.03;5.97;;;;;;;16.63;64.42;99794.20;2899805;82;21099;-62
2021/05/26 18:49:13;;;;;;;18.45;12.50;;;;;;;16.50;64.14;99801.46;2877395;80;21087;-67
2021/05/26 18:53:16;;;;;;;36.08;16.27;;;;;;;16.35;65.39;99802.23;2851028;83;21095;-65
2021/05/26 18:57:18;;;;;;;48.75;13.58;;;;;;;16.10;65.90;99799.64;2850543;83;21099;-67
2021/05/26 19:01:20;;;;;;;26.10;10.58;;;;;;;15.91;66.18;99800.05;2849864;83;21071;-67
2021/05/26 19:05:24;;;;;;;60.40;35.48;;;;;;;15.70;65.58;99796.91;2850303;83;21085;-66